Fort Myers, FL

2:43 PM EDT on September 21, 2014 (GMT -0400)
Page | Change Station
CLOSE
Current Station
Airport
Location: Fort Myers,
Elevation: 16 ft
Nearby Weather Stations

Elev 16 ft 26.58 °N, 81.86 °W | Updated 6 minutes ago

Clear
Clear
88 °F
Feels Like 94 °F
N
10
Wind Variable Wind from WSW

Today
High -- | Low -- °F
--% Chance of Precip.
Yesterday
High -- | Low -- °F
Precip. -- in
7:15 AM 7:25 PM
Waning Crescent, 6% visible
Pressure 29.96 in
Visibility 10.0 miles
Clouds Clear
Heat Index 94 °F
Dew Point 71 °F
Humidity 57%
Rainfall 0.02 in
Snow Depth Not available.
UV 12 out of 12
Pollen 5.60 out of 12
Air Quality Not available.
Flu Activity Not available.
SPECI KFMY 211837Z 25009KT 10SM VCTS CLR 31/22 A2996 RMK AO2 T03110217

More Conditions Fewer Conditions

Pressure 29.96 in
Visibility 10.0 miles
Clouds Clear
Heat Index 94 °F
Dew Point 71 °F
Humidity 57%
Rainfall 0.02 in
Snow Depth Not available.
UV 12 out of 12
Pollen 5.60 out of 12
Air Quality Not available.
Flu Activity Not available.
SPECI KFMY 211837Z 25009KT 10SM VCTS CLR 31/22 A2996 RMK AO2 T03110217

More Conditions Fewer Conditions

10-Day Weather Forecast

Almanac

Astronomy

Sep. 21, 2014 Rise Set
Actual Time 7:15 AM EDT 7:25 PM EDT
Civil Twilight 6:52 AM EDT 7:48 PM EDT
Nautical Twilight 6:25 AM EDT 8:15 PM EDT
Astronomical Twilight 5:58 AM EDT 8:42 PM EDT
Moon 4:58 AM EDT 5:52 PM EDT
Length of Visible Light 12h 55m
Length of Day
12h 09m
Tomorrow will be 1m 34s shorter.
Waning Crescent, 6% of the Moon is Illuminated
Today
Waning Crescent
Sep 24
New
Oct 1
First Quarter
Oct 8
Full
Oct 15
Last Quarter

Today's Extremes

State Highs State Lows

Community

WunderPhotos

Upload Photos

1,755,211 photos uploaded!

WunderBlogs® & News

Nearby

Snow Depth

Station Depth Elevation
No new snow has been reported.

Earthquake Activity

City Distance Mag. Time & Date
No recent earthquake activity has been reported nearby.
Minimum magnitude displayed is 2.5.

Coastal Water Temperatures

Place Temperature
Fort Myers, FL 82.9 °F
Naples, FL 88.0 °F

Nearby Weather Stations